Aaronsburg, Pennsylvania
Current Conditions -  °F | °C
As of 8:53 AM on Saturday 22 Nov 2014 (Local Time) from KUNV Reporting Station
Clear Clear  
Wind Chill: 14°   Ceiling: Unl
Heat Index: 21°   Visibility: 10mi
Dew Point: 12°   Wind: 6mph
Humidity: 68%   Direction: 220°SW
Pressure: 30.35"   Gusts: NA
Location:  40.9°N, 77.45°W
Report Text: KUNV 221353Z 22005KT 10SM SKC M06/M11 A3035
Loading
Personal Weather Stations






























Interactive Weather Map New forecast layout! Learn more

10-Day Weather Forecast

Advertisements
Track Severe Weather on mobile